Time;durP1;ratioP1;P1;durP2;ratioP2;P2;SDS_P1;SDS_P2;PMS_P1;PMS_P2;Temp;Humidity;BMP_temperature;BMP_pressure;BME280_temperature;BME280_humidity;BME280_pressure;Samples;Min_cycle;Max_cycle;Signal;HPM_P1;HPM_P2
2021/06/08 00:00:01;;;;;;;;;;;;;;;15.65;48.07;101281.59;1645470;86;20109;-77
2021/06/08 00:02:27;;;;;;;;;;;;;;;15.62;48.14;101282.13;1642950;87;20089;-77
2021/06/08 00:04:53;;;;;;;;;;;;;;;15.58;48.24;101287.89;1638340;86;20465;-77
2021/06/08 00:07:19;;;;;;;;;;;;;;;15.54;48.33;101291.44;1640900;87;20184;-77
2021/06/08 00:09:45;;;;;;;;;;;;;;;15.51;48.38;101291.52;1639675;86;20448;-77
2021/06/08 00:12:11;;;;;;;;;;;;;;;15.46;48.43;101288.17;1640304;86;20355;-77
2021/06/08 00:14:37;;;;;;;;;;;;;;;15.43;48.56;101289.55;1639654;86;20535;-77
2021/06/08 00:17:03;;;;;;;;;;;;;;;15.40;48.61;101290.48;1639728;86;20191;-77
2021/06/08 00:19:30;;;;;;;;;;;;;;;15.33;48.68;101285.46;1655655;86;20499;-77
2021/06/08 00:21:56;;;;;;;;;;;;;;;15.28;48.81;101284.72;1641278;87;20217;-77
2021/06/08 00:24:22;;;;;;;;;;;;;;;15.23;48.80;101283.53;1641182;87;20470;-77
2021/06/08 00:26:48;;;;;;;;;;;;;;;15.16;48.88;101278.91;1641346;87;20252;-77
2021/06/08 00:29:14;;;;;;;;;;;;;;;15.12;48.91;101283.78;1663685;83;20157;-77
2021/06/08 00:31:40;;;;;;;;;;;;;;;15.08;48.99;101283.45;1666112;86;20195;-77
2021/06/08 00:34:06;;;;;;;;;;;;;;;15.04;49.13;101284.89;1664981;86;20197;-77
2021/06/08 00:36:32;;;;;;;;;;;;;;;15.00;49.20;101276.30;1664715;84;20172;-77
2021/06/08 00:38:58;;;;;;;;;;;;;;;14.98;49.22;101282.43;1665052;86;20246;-77
2021/06/08 00:41:39;;;;;;;;;;;;;;;14.94;49.26;101280.79;1664611;86;20302;-77
2021/06/08 00:44:06;;;;;;;;;;;;;;;14.89;49.39;101280.45;1667078;84;20126;-79
2021/06/08 00:46:32;;;;;;;;;;;;;;;14.86;49.48;101284.87;1659103;84;20113;-79
2021/06/08 00:48:58;;;;;;;;;;;;;;;14.82;49.55;101281.48;1666360;86;20796;-79
2021/06/08 00:51:24;;;;;;;;;;;;;;;14.77;49.63;101281.17;1663694;84;20097;-79
2021/06/08 00:53:52;;;;;;;;;;;;;;;14.73;49.72;101278.23;1667815;84;20117;-79
2021/06/08 00:56:18;;;;;;;;;;;;;;;14.69;49.70;101272.23;1675446;84;20113;-79
2021/06/08 00:58:45;;;;;;;;;;;;;;;14.58;49.73;101280.72;1666572;84;20168;-79
2021/06/08 01:01:12;;;;;;;;;;;;;;;14.52;49.89;101281.73;1663941;84;20129;-79
2021/06/08 01:03:38;;;;;;;;;;;;;;;14.50;49.87;101283.52;1668436;84;20105;-79
2021/06/08 01:06:04;;;;;;;;;;;;;;;14.45;49.89;101283.20;1665330;84;20136;-79
2021/06/08 01:08:30;;;;;;;;;;;;;;;14.41;50.02;101277.63;1667557;85;20130;-79
2021/06/08 01:10:56;;;;;;;;;;;;;;;14.39;50.12;101275.05;1663228;84;20152;-79
2021/06/08 01:13:26;;;;;;;;;;;;;;;14.37;50.19;101275.52;1667516;84;20109;-79
2021/06/08 01:15:56;;;;;;;;;;;;;;;14.32;50.25;101273.91;1683588;84;20099;-80
2021/06/08 01:18:22;;;;;;;;;;;;;;;14.29;50.32;101269.62;1691139;84;20132;-80
2021/06/08 01:21:00;;;;;;;;;;;;;;;14.11;50.11;101270.85;1668454;84;20101;-79
2021/06/08 01:23:26;;;;;;;;;;;;;;;14.00;50.49;101272.84;1669063;84;20089;-79
2021/06/08 01:25:53;;;;;;;;;;;;;;;14.00;50.58;101270.23;1676269;84;20097;-79
2021/06/08 01:28:19;;;;;;;;;;;;;;;14.02;50.62;101271.51;1645657;86;20109;-79
2021/06/08 01:30:46;;;;;;;;;;;;;;;14.00;50.74;101281.94;1642398;86;20133;-79
2021/06/08 01:33:13;;;;;;;;;;;;;;;13.94;50.85;101274.70;1653279;86;20095;-79
2021/06/08 01:35:40;;;;;;;;;;;;;;;13.90;50.92;101279.95;1646256;85;20139;-79
2021/06/08 01:38:06;;;;;;;;;;;;;;;13.83;51.06;101275.76;1643593;86;20113;-79
2021/06/08 01:40:33;;;;;;;;;;;;;;;13.80;51.11;101278.86;1640922;86;20104;-79
2021/06/08 01:42:59;;;;;;;;;;;;;;;13.78;51.12;101279.33;1671194;85;20127;-79
2021/06/08 01:45:25;;;;;;;;;;;;;;;13.78;51.17;101283.23;1671135;85;20128;-79
2021/06/08 01:47:51;;;;;;;;;;;;;;;13.74;51.14;101278.53;1669956;85;20136;-79
2021/06/08 01:50:17;;;;;;;;;;;;;;;13.71;51.19;101279.88;1641101;86;20180;-79
2021/06/08 01:52:55;;;;;;;;;;;;;;;13.67;51.22;101278.66;1640630;86;20177;-79
2021/06/08 01:55:31;;;;;;;;;;;;;;;13.62;51.32;101278.75;1641989;86;20155;-79
2021/06/08 01:58:07;;;;;;;;;;;;;;;13.61;51.40;101284.83;1642118;86;20126;-79
2021/06/08 02:00:54;;;;;;;;;;;;;;;13.61;51.53;101293.06;1640676;86;20161;-79
2021/06/08 02:03:34;;;;;;;;;;;;;;;13.59;51.51;101296.55;1652186;86;20130;-79
2021/06/08 02:06:10;;;;;;;;;;;;;;;13.48;51.69;101293.75;1632549;87;20101;-79
2021/06/08 02:08:48;;;;;;;;;;;;;;;13.47;51.70;101294.63;1640670;86;20137;-79
2021/06/08 02:11:19;;;;;;;;;;;;;;;13.42;51.51;101292.55;1653270;86;20137;-79
2021/06/08 02:14:10;;;;;;;;;;;;;;;13.17;51.66;101304.63;1641700;86;20192;-79
2021/06/08 02:16:39;;;;;;;;;;;;;;;13.15;51.84;101298.57;1649276;86;20185;-79
2021/06/08 02:19:05;;;;;;;;;;;;;;;13.17;51.89;101301.18;1641556;87;20185;-79
2021/06/08 02:21:38;;;;;;;;;;;;;;;13.17;52.04;101303.33;1641572;87;20244;-79
2021/06/08 02:24:06;;;;;;;;;;;;;;;13.14;52.02;101302.49;1649873;86;20117;-80
2021/06/08 02:26:34;;;;;;;;;;;;;;;13.14;52.09;101307.69;1662207;86;20194;-79
2021/06/08 02:29:01;;;;;;;;;;;;;;;13.10;52.16;101304.72;1636629;86;20134;-79
2021/06/08 02:31:27;;;;;;;;;;;;;;;13.10;52.28;101305.58;1617167;87;20104;-79
2021/06/08 02:33:55;;;;;;;;;;;;;;;13.10;52.25;101305.58;1638361;86;20135;-79
2021/06/08 02:36:22;;;;;;;;;;;;;;;13.08;52.28;101299.98;1648612;85;20106;-80
2021/06/08 02:38:49;;;;;;;;;;;;;;;13.06;52.32;101305.20;1642751;86;20126;-79
2021/06/08 02:41:15;;;;;;;;;;;;;;;13.06;52.36;101300.02;1640422;86;20111;-79
2021/06/08 02:43:41;;;;;;;;;;;;;;;13.05;52.45;101300.89;1670583;85;20120;-79
2021/06/08 02:46:09;;;;;;;;;;;;;;;13.03;52.56;101303.95;1666688;85;20103;-79
2021/06/08 02:48:36;;;;;;;;;;;;;;;13.03;52.55;101304.39;1650696;85;20138;-79
2021/06/08 02:51:03;;;;;;;;;;;;;;;13.02;52.63;101306.57;1640286;86;20138;-79
2021/06/08 02:53:29;;;;;;;;;;;;;;;13.00;52.65;101302.70;1635370;86;20130;-79
2021/06/08 02:56:02;;;;;;;;;;;;;;;12.98;52.59;101307.53;1640890;86;20135;-79
2021/06/08 02:58:30;;;;;;;;;;;;;;;12.95;52.63;101310.17;1657517;85;20110;-79
2021/06/08 03:00:56;;;;;;;;;;;;;;;12.92;52.74;101305.44;1643683;86;20114;-79
2021/06/08 03:03:26;;;;;;;;;;;;;;;12.88;52.76;101305.50;1642796;86;20150;-79
2021/06/08 03:05:55;;;;;;;;;;;;;;;12.86;52.84;101306.83;1643171;86;20130;-79
2021/06/08 03:08:40;;;;;;;;;;;;;;;12.83;52.86;101308.16;1645215;86;20097;-79
2021/06/08 03:11:09;;;;;;;;;;;;;;;12.75;53.07;101316.94;1649416;86;20101;-79
2021/06/08 03:13:36;;;;;;;;;;;;;;;12.76;53.12;101317.35;1633736;87;20097;-79
2021/06/08 03:16:04;;;;;;;;;;;;;;;12.77;53.37;101316.03;1633697;87;20134;-79
2021/06/08 03:18:33;;;;;;;;;;;;;;;12.79;53.38;101314.27;1654639;86;20130;-79
2021/06/08 03:21:09;;;;;;;;;;;;;;;12.85;53.46;101309.44;1644043;86;20110;-79
2021/06/08 03:23:38;;;;;;;;;;;;;;;12.91;53.44;101311.51;1660821;86;20149;-79
2021/06/08 03:26:06;;;;;;;;;;;;;;;12.95;53.36;101312.33;1654230;86;20125;-79
2021/06/08 03:28:32;;;;;;;;;;;;;;;12.95;53.46;101318.81;1639494;86;20126;-79
2021/06/08 03:31:00;;;;;;;;;;;;;;;12.89;53.22;101315.01;1664450;84;20109;-79
2021/06/08 03:33:27;;;;;;;;;;;;;;;12.76;53.51;101317.35;1661068;84;20123;-80
2021/06/08 03:35:55;;;;;;;;;;;;;;;12.73;53.68;101325.18;1665435;84;20124;-79
2021/06/08 03:38:24;;;;;;;;;;;;;;;12.80;53.81;101325.52;1666451;86;20141;-79
2021/06/08 03:40:51;;;;;;;;;;;;;;;12.85;53.86;101315.92;1665164;84;20217;-79
2021/06/08 03:43:26;;;;;;;;;;;;;;;12.92;53.92;101320.16;1674938;84;20189;-79
2021/06/08 03:45:52;;;;;;;;;;;;;;;12.98;54.03;101315.31;1681067;84;20202;-79
2021/06/08 03:48:19;;;;;;;;;;;;;;;13.04;54.09;101320.39;1689063;84;20204;-80
2021/06/08 03:50:46;;;;;;;;;;;;;;;13.10;54.12;101313.36;1659527;84;20207;-79
2021/06/08 03:53:12;;;;;;;;;;;;;;;13.15;54.13;101321.94;1672657;84;20266;-79
2021/06/08 03:55:38;;;;;;;;;;;;;;;13.13;53.96;101321.55;1688586;84;20174;-79
2021/06/08 03:58:17;;;;;;;;;;;;;;;12.98;54.03;101324.41;1667513;84;20190;-79
2021/06/08 04:00:40;;;;;;;;;;;;;;;12.90;54.37;101324.07;1690119;84;20206;-79
2021/06/08 04:03:11;;;;;;;;;;;;;;;12.88;54.50;101322.38;1668180;84;20173;-79
2021/06/08 04:05:37;;;;;;;;;;;;;;;12.92;54.67;101322.31;1665373;86;20205;-79
2021/06/08 04:08:05;;;;;;;;;;;;;;;13.19;55.00;101318.89;1666782;84;20208;-79
2021/06/08 04:10:32;;;;;;;;;;;;;;;13.64;55.43;101318.55;1678164;84;20130;-79
2021/06/08 04:13:03;;;;;;;;;;;;;;;14.12;55.17;101323.72;1633123;87;20232;-77
2021/06/08 04:15:29;;;;;;;;;;;;;;;14.37;54.86;101321.05;1641734;86;20150;-76
2021/06/08 04:17:57;;;;;;;;;;;;;;;14.52;54.64;101324.68;1637594;86;20216;-77
2021/06/08 04:20:27;;;;;;;;;;;;;;;14.62;54.79;101333.13;1648379;86;20259;-78
2021/06/08 04:22:56;;;;;;;;;;;;;;;14.76;54.77;101332.38;1668340;85;20194;-74
2021/06/08 04:25:23;;;;;;;;;;;;;;;14.92;54.81;101334.20;1691779;84;20099;-78
2021/06/08 04:27:49;;;;;;;;;;;;;;;14.99;56.36;101331.87;1675088;84;20101;-78
2021/06/08 04:30:16;;;;;;;;;;;;;;;14.96;56.43;101333.25;1658117;84;20117;-78
2021/06/08 04:32:43;;;;;;;;;;;;;;;14.92;56.64;101329.45;1647360;86;20133;-78
2021/06/08 04:35:10;;;;;;;;;;;;;;;14.86;56.70;101323.92;1643766;86;20093;-78
2021/06/08 04:37:36;;;;;;;;;;;;;;;14.83;56.68;101324.00;1644026;87;20138;-78
2021/06/08 04:40:04;;;;;;;;;;;;;;;14.84;56.86;101338.28;1643065;86;20094;-78
2021/06/08 04:42:30;;;;;;;;;;;;;;;14.88;56.99;101329.52;1643176;86;20146;-78
2021/06/08 04:44:57;;;;;;;;;;;;;;;14.97;57.18;101336.71;1642942;86;20143;-78
2021/06/08 04:47:23;;;;;;;;;;;;;;;15.08;57.32;101337.30;1643009;86;20442;-78
2021/06/08 04:49:50;;;;;;;;;;;;;;;15.16;57.39;101341.44;1644701;86;20107;-78
2021/06/08 04:52:17;;;;;;;;;;;;;;;15.29;57.48;101339.84;1650643;86;20783;-78
2021/06/08 04:54:43;;;;;;;;;;;;;;;15.45;57.57;101345.95;1642355;86;20097;-78
2021/06/08 04:57:12;;;;;;;;;;;;;;;15.73;57.85;101342.22;1641100;86;20547;-78
2021/06/08 05:00:03;;;;;;;;;;;;;;;16.14;57.69;101342.41;1641997;86;20147;-78
2021/06/08 05:02:49;;;;;;;;;;;;;;;16.66;57.87;101335.72;1644881;86;20103;-78
2021/06/08 05:05:17;;;;;;;;;;;;;;;17.44;57.80;101334.56;1645567;86;20142;-78
2021/06/08 05:07:46;;;;;;;;;;;;;;;18.23;57.28;101340.11;1644701;86;20152;-78
2021/06/08 05:10:13;;;;;;;;;;;;;;;18.98;56.52;101342.08;1635484;86;20623;-78
2021/06/08 05:12:41;;;;;;;;;;;;;;;19.71;56.54;101342.58;1640009;86;20168;-78
2021/06/08 05:15:08;;;;;;;;;;;;;;;20.41;56.48;101347.35;1646180;86;20514;-78
2021/06/08 05:17:35;;;;;;;;;;;;;;;20.99;55.66;101339.38;1659663;86;20115;-78
2021/06/08 05:20:01;;;;;;;;;;;;;;;21.47;55.13;101342.72;1656681;85;20113;-78
2021/06/08 05:22:27;;;;;;;;;;;;;;;22.09;55.05;101349.67;1653512;86;21104;-78
2021/06/08 05:24:55;;;;;;;;;;;;;;;22.69;54.62;101347.30;1646699;86;20102;-78
2021/06/08 05:27:22;;;;;;;;;;;;;;;23.26;54.56;101346.31;1643054;86;20142;-78
2021/06/08 05:29:53;;;;;;;;;;;;;;;23.79;53.75;101343.66;1655908;84;20137;-78
2021/06/08 05:32:19;;;;;;;;;;;;;;;24.37;54.21;101344.95;1642893;85;20182;-78
2021/06/08 05:34:46;;;;;;;;;;;;;;;24.92;53.34;101340.97;1643104;86;20295;-78
2021/06/08 05:37:15;;;;;;;;;;;;;;;25.39;53.04;101339.66;1646994;86;20242;-78
2021/06/08 05:39:43;;;;;;;;;;;;;;;25.76;52.72;101344.67;1653381;86;20187;-78
2021/06/08 05:42:14;;;;;;;;;;;;;;;26.18;52.72;101342.17;1641854;86;20111;-78
2021/06/08 05:44:41;;;;;;;;;;;;;;;26.64;52.57;101346.41;1661151;86;20132;-78
2021/06/08 05:47:07;;;;;;;;;;;;;;;27.00;52.16;101347.39;1654160;86;20227;-78
2021/06/08 05:49:36;;;;;;;;;;;;;;;27.46;52.25;101350.11;1651033;86;20191;-78
2021/06/08 05:52:02;;;;;;;;;;;;;;;27.79;51.82;101353.84;1647158;86;20089;-78
2021/06/08 05:54:29;;;;;;;;;;;;;;;28.07;51.62;101354.73;1644844;86;20133;-78
2021/06/08 05:56:56;;;;;;;;;;;;;;;28.28;51.45;101354.39;1643206;86;20414;-78
2021/06/08 05:59:23;;;;;;;;;;;;;;;28.63;51.58;101356.05;1637180;86;20137;-78
2021/06/08 06:01:49;;;;;;;;;;;;;;;28.99;51.14;101354.44;1644834;86;20097;-79
2021/06/08 06:04:17;;;;;;;;;;;;;;;29.27;50.96;101355.65;1640661;86;20090;-79
2021/06/08 06:06:46;;;;;;;;;;;;;;;29.63;50.79;101354.92;1640497;86;20126;-79
2021/06/08 06:09:14;;;;;;;;;;;;;;;29.88;50.29;101357.16;1641723;86;20097;-79
2021/06/08 06:11:40;;;;;;;;;;;;;;;30.08;50.17;101355.97;1640945;86;20090;-77
2021/06/08 06:14:07;;;;;;;;;;;;;;;30.47;50.19;101359.63;1651971;86;20111;-77
2021/06/08 06:16:36;;;;;;;;;;;;;;;30.82;50.00;101360.52;1641000;86;20130;-77
2021/06/08 06:19:07;;;;;;;;;;;;;;;31.18;49.58;101362.57;1642050;86;20138;-77
2021/06/08 06:21:33;;;;;;;;;;;;;;;31.42;49.39;101362.62;1642754;86;20138;-77
2021/06/08 06:24:00;;;;;;;;;;;;;;;31.69;48.77;101365.94;1641189;86;20098;-76
2021/06/08 06:26:27;;;;;;;;;;;;;;;31.72;48.46;101366.46;1590274;88;20091;-77
2021/06/08 06:28:54;;;;;;;;;;;;;;;31.88;48.44;101367.21;1645115;86;20134;-78
2021/06/08 06:31:20;;;;;;;;;;;;;;;32.09;48.18;101365.19;1660929;84;20109;-77
2021/06/08 06:33:55;;;;;;;;;;;;;;;32.19;47.68;101377.20;1666744;84;20122;-77
2021/06/08 06:36:15;;;;;;;;;;;;;;;32.19;47.36;101374.03;1665735;84;20113;-77
2021/06/08 06:38:44;;;;;;;;;;;;;;;32.15;46.96;101376.64;1665999;84;20101;-77
2021/06/08 06:41:11;;;;;;;;;;;;;;;32.01;46.59;101366.41;1634904;86;20114;-77
2021/06/08 06:43:38;;;;;;;;;;;;;;;31.92;46.28;101370.80;1640455;86;20161;-77
2021/06/08 06:46:04;;;;;;;;;;;;;;;31.88;45.95;101379.25;1610537;87;20114;-77
2021/06/08 06:48:30;;;;;;;;;;;;;;;31.69;45.63;101370.80;1618538;87;20114;-77
2021/06/08 06:50:57;;;;;;;;;;;;;;;31.71;45.48;101369.31;1616084;87;20129;-77
2021/06/08 06:53:23;;;;;;;;;;;;;;;31.84;45.22;101367.15;1621745;86;20234;-77
2021/06/08 06:55:52;;;;;;;;;;;;;;;31.88;45.05;101359.19;1628835;87;20210;-77
2021/06/08 06:58:22;;;;;;;;;;;;;;;31.89;44.66;101360.38;1623474;87;20219;-77
2021/06/08 07:00:49;;;;;;;;;;;;;;;31.86;44.39;101360.67;1616324;87;20173;-77
2021/06/08 07:03:24;;;;;;;;;;;;;;;31.83;44.16;101364.12;1616561;87;20220;-77
2021/06/08 07:05:50;;;;;;;;;;;;;;;31.89;44.04;101360.38;1612232;87;26117;-77
2021/06/08 07:08:21;;;;;;;;;;;;;;;31.88;43.75;101367.21;1618480;87;20277;-77
2021/06/08 07:10:47;;;;;;;;;;;;;;;31.85;43.36;101366.16;1616644;87;20221;-77
2021/06/08 07:13:13;;;;;;;;;;;;;;;31.85;43.04;101367.50;1617831;87;20561;-77
2021/06/08 07:15:40;;;;;;;;;;;;;;;31.87;43.10;101369.05;1617367;88;20145;-77
2021/06/08 07:18:09;;;;;;;;;;;;;;;31.95;42.94;101373.67;1613696;87;20232;-77
2021/06/08 07:20:36;;;;;;;;;;;;;;;32.24;42.74;101373.09;1613384;87;20224;-77
2021/06/08 07:23:02;;;;;;;;;;;;;;;32.56;42.44;101380.71;1616420;87;20604;-77
2021/06/08 07:25:35;;;;;;;;;;;;;;;32.63;42.00;101379.63;1620096;87;20516;-76
2021/06/08 07:27:58;;;;;;;;;;;;;;;32.77;42.06;101379.62;1615047;87;20202;-77
2021/06/08 07:30:24;;;;;;;;;;;;;;;33.05;41.95;101373.23;1616387;87;20216;-77
2021/06/08 07:32:54;;;;;;;;;;;;;;;33.02;41.51;101378.05;1614249;87;20177;-77
2021/06/08 07:35:24;;;;;;;;;;;;;;;32.99;41.35;101380.54;1608609;87;20188;-77
2021/06/08 07:37:52;;;;;;;;;;;;;;;33.07;41.38;101382.47;1622851;87;20210;-77
2021/06/08 07:40:29;;;;;;;;;;;;;;;33.04;40.85;101382.77;1617706;87;20623;-77
2021/06/08 07:42:57;;;;;;;;;;;;;;;32.89;40.57;101382.44;1615598;86;20241;-77
2021/06/08 07:45:33;;;;;;;;;;;;;;;32.87;40.49;101373.70;1625329;87;20235;-77
2021/06/08 07:48:00;;;;;;;;;;;;;;;32.99;40.10;101379.70;1623357;87;20413;-77
2021/06/08 07:50:31;;;;;;;;;;;;;;;33.11;39.70;101376.64;1627113;87;20143;-77
2021/06/08 07:53:02;;;;;;;;;;;;;;;33.25;39.48;101377.95;1621459;87;20106;-77
2021/06/08 07:55:29;;;;;;;;;;;;;;;33.26;39.08;101382.33;1621427;87;20127;-77
2021/06/08 07:57:55;;;;;;;;;;;;;;;33.03;38.83;101385.10;1598305;88;20114;-77
2021/06/08 08:00:22;;;;;;;;;;;;;;;32.96;38.55;101385.36;1616512;87;20489;-76
2021/06/08 08:02:50;;;;;;;;;;;;;;;32.53;38.18;101386.36;1615484;87;20215;-78
2021/06/08 08:05:18;;;;;;;;;;;;;;;32.32;38.54;101380.89;1615369;87;20305;-78
2021/06/08 08:07:45;;;;;;;;;;;;;;;32.28;38.31;101383.02;1620245;87;20205;-76
2021/06/08 08:10:12;;;;;;;;;;;;;;;32.11;37.93;101379.27;1635140;87;20207;-76
2021/06/08 08:12:40;;;;;;;;;;;;;;;32.11;37.86;101379.27;1615304;87;20237;-76
2021/06/08 08:15:08;;;;;;;;;;;;;;;32.12;37.73;101378.77;1616315;87;20130;-76
2021/06/08 08:17:34;;;;;;;;;;;;;;;31.99;37.30;101375.07;1622574;87;20091;-75
2021/06/08 08:20:01;;;;;;;;;;;;;;;31.96;37.31;101371.84;1613540;87;20155;-76
2021/06/08 08:22:27;;;;;;;;;;;;;;;32.05;37.18;101377.17;1612653;87;20157;-76
2021/06/08 08:24:54;;;;;;;;;;;;;;;31.93;36.89;101376.98;1615920;87;20126;-75
2021/06/08 08:27:20;;;;;;;;;;;;;;;31.72;36.70;101378.99;1616421;87;20101;-75
2021/06/08 08:29:46;;;;;;;;;;;;;;;31.45;36.83;101377.04;1615856;88;20114;-75
2021/06/08 08:32:13;;;;;;;;;;;;;;;31.38;36.68;101376.76;1612013;87;20142;-76
2021/06/08 08:34:42;;;;;;;;;;;;;;;31.31;36.63;101374.30;1631101;86;20097;-76
2021/06/08 08:37:08;;;;;;;;;;;;;;;31.34;36.31;101372.67;1641506;87;20115;-75
2021/06/08 08:39:34;;;;;;;;;;;;;;;31.38;36.36;101378.59;1640620;86;20162;-76
2021/06/08 08:42:00;;;;;;;;;;;;;;;31.33;36.01;101375.48;1648329;86;20838;-76
2021/06/08 08:44:26;;;;;;;;;;;;;;;31.16;36.27;101377.05;1643240;85;20129;-76
2021/06/08 08:46:52;;;;;;;;;;;;;;;30.75;35.82;101370.05;1660527;86;20087;-76
2021/06/08 08:49:18;;;;;;;;;;;;;;;30.60;35.73;101373.63;1638801;86;20100;-76
2021/06/08 08:51:48;;;;;;;;;;;;;;;30.37;35.48;101372.09;1645802;86;20157;-76
2021/06/08 08:54:14;;;;;;;;;;;;;;;30.27;35.27;101374.23;1641274;86;20111;-76
2021/06/08 08:56:41;;;;;;;;;;;;;;;30.64;35.49;101372.37;1639322;86;20138;-76
2021/06/08 08:59:10;;;;;;;;;;;;;;;31.24;35.13;101370.00;1635878;86;20097;-76
2021/06/08 09:01:37;;;;;;;;;;;;;;;31.68;35.10;101365.59;1642013;86;20113;-76
2021/06/08 09:04:05;;;;;;;;;;;;;;;32.28;35.22;101378.16;1641747;86;20138;-76
2021/06/08 09:06:31;;;;;;;;;;;;;;;32.61;34.65;101372.23;1642371;86;20157;-76
2021/06/08 09:08:58;;;;;;;;;;;;;;;32.89;34.27;101368.55;1641763;86;20129;-76
2021/06/08 09:11:24;;;;;;;;;;;;;;;33.07;34.20;101363.20;1638464;86;20559;-76
2021/06/08 09:13:50;;;;;;;;;;;;;;;33.28;34.15;101362.91;1641716;86;20090;-76
2021/06/08 09:16:16;;;;;;;;;;;;;;;33.10;33.85;101368.77;1642203;86;20437;-76
2021/06/08 09:18:43;;;;;;;;;;;;;;;33.09;33.93;101365.73;1641617;86;20172;-76
2021/06/08 09:21:15;;;;;;;;;;;;;;;32.89;33.67;101361.00;1643567;86;20130;-77
2021/06/08 09:23:41;;;;;;;;;;;;;;;32.42;33.54;101373.17;1657104;85;20110;-76
2021/06/08 09:26:07;;;;;;;;;;;;;;;32.15;33.52;101370.45;1638386;86;20481;-76
2021/06/08 09:28:35;;;;;;;;;;;;;;;31.34;33.33;101359.80;1609749;87;20166;-76
2021/06/08 09:31:04;;;;;;;;;;;;;;;30.66;33.32;101360.22;1643454;85;20130;-76
2021/06/08 09:33:42;;;;;;;;;;;;;;;29.97;32.99;101355.53;1667425;84;20137;-76
2021/06/08 09:36:12;;;;;;;;;;;;;;;29.48;33.01;101353.54;1672540;84;20107;-76
2021/06/08 09:38:44;;;;;;;;;;;;;;;29.12;32.81;101357.40;1667355;84;20106;-76
2021/06/08 09:41:28;;;;;;;;;;;;;;;28.84;32.51;101357.50;1668507;84;20105;-76
2021/06/08 09:44:00;;;;;;;;;;;;;;;28.37;32.33;101355.48;1668479;85;20137;-76
2021/06/08 09:46:29;;;;;;;;;;;;;;;27.96;32.18;101349.41;1661797;84;20111;-76
2021/06/08 09:48:57;;;;;;;;;;;;;;;27.75;32.19;101355.04;1666312;84;20117;-76
2021/06/08 09:51:25;;;;;;;;;;;;;;;27.64;32.13;101351.86;1665897;84;20113;-76
2021/06/08 09:53:51;;;;;;;;;;;;;;;27.46;32.10;101354.58;1666734;84;20118;-75
2021/06/08 09:56:19;;;;;;;;;;;;;;;27.25;31.82;101351.23;1666589;85;20133;-76
2021/06/08 09:58:51;;;;;;;;;;;;;;;27.08;31.69;101355.61;1665885;84;20141;-75
2021/06/08 10:01:23;;;;;;;;;;;;;;;26.99;31.66;101346.55;1667726;84;20129;-74
2021/06/08 10:03:58;;;;;;;;;;;;;;;26.91;31.67;101356.84;1667651;84;20544;-76
2021/06/08 10:06:31;;;;;;;;;;;;;;;26.84;31.51;101346.30;1675415;84;20507;-76
2021/06/08 10:09:03;;;;;;;;;;;;;;;26.76;31.58;101351.31;1664195;84;20110;-75
2021/06/08 10:11:31;;;;;;;;;;;;;;;26.70;31.57;101345.12;1667333;84;20527;-75
2021/06/08 10:14:17;;;;;;;;;;;;;;;26.69;31.41;101345.59;1666416;84;20551;-75
2021/06/08 10:16:44;;;;;;;;;;;;;;;26.67;31.39;101344.02;1617055;87;20532;-75
2021/06/08 10:19:11;;;;;;;;;;;;;;;26.61;31.22;101338.66;1634468;86;20404;-75
2021/06/08 10:21:40;;;;;;;;;;;;;;;26.56;31.47;101335.97;1648121;86;20477;-76
2021/06/08 10:24:11;;;;;;;;;;;;;;;26.60;31.38;101331.66;1640985;86;20524;-75
2021/06/08 10:26:38;;;;;;;;;;;;;;;26.58;31.28;101336.70;1646156;86;20534;-75
2021/06/08 10:29:09;;;;;;;;;;;;;;;26.60;31.31;101335.64;1646111;86;20133;-75
2021/06/08 10:31:38;;;;;;;;;;;;;;;26.62;31.15;101331.08;1639136;86;20113;-75
2021/06/08 10:34:06;;;;;;;;;;;;;;;26.65;31.34;101337.97;1665635;84;20565;-75
2021/06/08 10:36:33;;;;;;;;;;;;;;;26.61;31.20;101332.51;1659780;85;20092;-75
2021/06/08 10:39:00;;;;;;;;;;;;;;;26.61;31.06;101324.07;1664845;85;20551;-75
2021/06/08 10:41:27;;;;;;;;;;;;;;;26.59;31.21;101328.64;1664604;84;20560;-75
2021/06/08 10:43:54;;;;;;;;;;;;;;;26.62;31.16;101332.88;1665609;85;20520;-75
2021/06/08 10:46:29;;;;;;;;;;;;;;;26.62;31.08;101326.25;1664793;85;20580;-75
2021/06/08 10:48:55;;;;;;;;;;;;;;;26.59;31.13;101322.01;1669238;84;20138;-76
2021/06/08 10:51:23;;;;;;;;;;;;;;;26.52;31.24;101320.75;1674048;84;20107;-76
2021/06/08 10:53:54;;;;;;;;;;;;;;;26.51;31.29;101328.84;1677672;84;20127;-76
2021/06/08 10:56:34;;;;;;;;;;;;;;;26.47;31.29;101320.74;1662647;84;20581;-76
2021/06/08 10:59:09;;;;;;;;;;;;;;;26.46;31.42;101324.34;1658689;84;20113;-76
2021/06/08 11:01:40;;;;;;;;;;;;;;;26.53;31.42;101318.47;1679842;84;20543;-76
2021/06/08 11:04:08;;;;;;;;;;;;;;;26.64;31.38;101316.38;1670290;84;20575;-76
2021/06/08 11:06:58;;;;;;;;;;;;;;;26.69;31.42;101315.56;1672276;84;20125;-76
2021/06/08 11:09:29;;;;;;;;;;;;;;;26.74;31.40;101313.42;1659751;84;20451;-76
2021/06/08 11:12:00;;;;;;;;;;;;;;;26.79;31.24;101303.80;1670399;84;20095;-76
2021/06/08 11:14:39;;;;;;;;;;;;;;;26.78;31.31;101303.44;1672423;84;20575;-76
2021/06/08 11:17:07;;;;;;;;;;;;;;;26.82;31.32;101304.42;1673046;84;20103;-76
2021/06/08 11:19:47;;;;;;;;;;;;;;;26.83;31.40;101301.30;1679665;84;20127;-75
2021/06/08 11:22:15;;;;;;;;;;;;;;;26.83;31.35;101306.12;1665962;85;20097;-75
2021/06/08 11:24:43;;;;;;;;;;;;;;;26.84;31.46;101308.30;1662890;84;300161;-75
2021/06/08 11:27:09;;;;;;;;;;;;;;;26.90;31.38;101303.86;1666300;84;20129;-76
2021/06/08 11:29:53;;;;;;;;;;;;;;;26.91;31.43;101297.12;1636393;86;20522;-76
2021/06/08 11:32:34;;;;;;;;;;;;;;;26.93;31.25;101294.35;1654927;85;20540;-76
2021/06/08 11:35:22;;;;;;;;;;;;;;;26.79;31.25;101297.17;1642604;86;20579;-76
2021/06/08 11:37:52;;;;;;;;;;;;;;;26.82;31.59;101300.92;1641785;86;20130;-76
2021/06/08 11:40:38;;;;;;;;;;;;;;;26.91;31.36;101300.25;1640869;86;20532;-76
2021/06/08 11:43:08;;;;;;;;;;;;;;;26.88;31.25;101300.48;1638345;86;20545;-76
2021/06/08 11:45:37;;;;;;;;;;;;;;;26.81;31.32;101293.44;1643693;86;20553;-76
2021/06/08 11:48:03;;;;;;;;;;;;;;;26.85;31.33;101293.59;1639645;86;20108;-76
2021/06/08 11:50:44;;;;;;;;;;;;;;;26.86;31.41;101288.64;1641268;86;20113;-76
2021/06/08 11:53:12;;;;;;;;;;;;;;;26.90;31.38;101292.77;1641140;86;20089;-76
2021/06/08 11:55:38;;;;;;;;;;;;;;;26.94;31.25;101286.28;1644605;86;20135;-76
2021/06/08 11:58:04;;;;;;;;;;;;;;;26.89;31.40;101280.45;1631672;85;20165;-75
2021/06/08 12:00:50;;;;;;;;;;;;;;;26.88;31.30;101278.77;1624572;86;20115;-76
2021/06/08 12:03:28;;;;;;;;;;;;;;;26.86;31.23;101282.02;1639485;86;20134;-76
2021/06/08 12:05:54;;;;;;;;;;;;;;;26.83;31.40;101276.92;1641828;86;20520;-76
2021/06/08 12:08:26;;;;;;;;;;;;;;;26.84;31.61;101275.97;1634457;86;20165;-76
2021/06/08 12:10:53;;;;;;;;;;;;;;;26.89;31.44;101271.65;1634882;86;20519;-76
2021/06/08 12:13:30;;;;;;;;;;;;;;;26.92;31.52;101269.61;1631401;86;20105;-76
2021/06/08 12:15:56;;;;;;;;;;;;;;;27.01;31.51;101276.93;1643379;86;20538;-76
2021/06/08 12:18:31;;;;;;;;;;;;;;;27.06;31.42;101277.03;1637486;85;20133;-76
2021/06/08 12:20:55;;;;;;;;;;;;;;;27.07;31.49;101276.08;1632002;86;20444;-76
2021/06/08 12:23:32;;;;;;;;;;;;;;;27.12;31.49;101268.13;1627041;86;20551;-75
2021/06/08 12:26:18;;;;;;;;;;;;;;;27.09;31.54;101263.05;1632802;86;20560;-75
2021/06/08 12:29:04;;;;;;;;;;;;;;;27.09;31.47;101259.07;1643708;86;20097;-76
2021/06/08 12:31:31;;;;;;;;;;;;;;;27.09;31.52;101258.22;1639979;86;20149;-76
2021/06/08 12:33:57;;;;;;;;;;;;;;;27.07;31.43;101253.03;1662360;84;20089;-76
2021/06/08 12:36:24;;;;;;;;;;;;;;;27.03;31.48;101249.75;1669468;84;20106;-76
2021/06/08 12:38:55;;;;;;;;;;;;;;;27.04;31.56;101230.69;1666772;84;20106;-76
2021/06/08 12:41:25;;;;;;;;;;;;;;;27.04;31.52;101246.14;1663637;84;20121;-76
2021/06/08 12:43:53;;;;;;;;;;;;;;;27.07;31.46;101245.55;1656219;84;20120;-76